Time;durP1;ratioP1;P1;durP2;ratioP2;P2;SDS_P1;SDS_P2;PMS_P1;PMS_P2;Temp;Humidity;BMP_temperature;BMP_pressure;BME280_temperature;BME280_humidity;BME280_pressure;Samples;Min_cycle;Max_cycle;Signal;HPM_P1;HPM_P2
2021/09/06 00:01:24;;;;;;;12.48;9.77;;;19.10;84.90;;;;;;5037792;28;20104;-84
2021/09/06 00:03:50;;;;;;;15.32;10.98;;;19.10;85.10;;;;;;5044371;28;20131;-84
2021/09/06 00:06:15;;;;;;;16.67;11.40;;;19.00;85.00;;;;;;5054154;28;20020;-84
2021/09/06 00:08:41;;;;;;;16.67;11.55;;;19.00;85.10;;;;;;5036155;28;20470;-86
2021/09/06 00:11:09;;;;;;;16.27;11.25;;;19.00;85.20;;;;;;5019199;28;20485;-90
2021/09/06 00:13:36;;;;;;;15.00;11.52;;;18.90;85.30;;;;;;5036023;28;20151;-84
2021/09/06 00:16:02;;;;;;;15.38;11.57;;;18.90;85.40;;;;;;5038392;28;20024;-84
2021/09/06 00:18:28;;;;;;;15.73;12.32;;;18.90;85.50;;;;;;5053594;28;20232;-86
2021/09/06 00:20:56;;;;;;;15.45;11.48;;;18.80;85.50;;;;;;5038529;28;20029;-85
2021/09/06 00:23:23;;;;;;;15.60;11.43;;;18.80;85.70;;;;;;5060844;28;20039;-89
2021/09/06 00:25:49;;;;;;;15.18;11.30;;;18.70;85.50;;;;;;5042903;28;20051;-84
2021/09/06 00:28:15;;;;;;;17.10;11.63;;;18.70;85.60;;;;;;5040647;28;20029;-85
2021/09/06 00:30:41;;;;;;;14.70;11.68;;;18.70;85.70;;;;;;5076312;28;20028;-87
2021/09/06 00:33:07;;;;;;;14.88;11.73;;;18.70;86.00;;;;;;5076322;28;20029;-85
2021/09/06 00:35:33;;;;;;;16.52;11.90;;;18.60;86.20;;;;;;5059739;28;20342;-85
2021/09/06 00:37:58;;;;;;;16.60;12.27;;;18.60;86.30;;;;;;5035464;28;20037;-85
2021/09/06 00:40:25;;;;;;;15.70;11.95;;;18.60;86.50;;;;;;4999386;28;20784;-84
2021/09/06 00:42:50;;;;;;;14.63;11.00;;;18.50;86.40;;;;;;5029965;28;20025;-84
2021/09/06 00:45:16;;;;;;;14.85;11.57;;;18.50;86.30;;;;;;5052920;28;20033;-84
2021/09/06 00:47:42;;;;;;;13.82;10.80;;;18.50;86.10;;;;;;4998811;28;20385;-85
2021/09/06 00:50:12;;;;;;;13.73;10.80;;;18.40;85.80;;;;;;5033412;28;20049;-84
2021/09/06 00:52:42;;;;;;;15.32;11.30;;;18.40;86.10;;;;;;5035589;28;20528;-84
2021/09/06 00:55:09;;;;;;;16.63;12.07;;;18.40;86.20;;;;;;5034805;28;20025;-85
2021/09/06 00:57:35;;;;;;;15.20;12.20;;;18.30;86.40;;;;;;5052788;28;20017;-83
2021/09/06 01:00:02;;;;;;;16.73;12.32;;;18.30;86.40;;;;;;5052948;28;20108;-84
2021/09/06 01:02:28;;;;;;;16.48;12.20;;;18.30;86.60;;;;;;5052517;28;20087;-84
2021/09/06 01:04:53;;;;;;;15.02;12.23;;;18.20;86.60;;;;;;5034999;28;20469;-84
2021/09/06 01:07:19;;;;;;;14.68;11.52;;;18.20;86.50;;;;;;5034820;28;20036;-84
2021/09/06 01:09:45;;;;;;;15.90;11.57;;;18.20;86.70;;;;;;5052666;28;20087;-84
2021/09/06 01:12:11;;;;;;;15.10;11.90;;;18.10;86.50;;;;;;5034659;28;20017;-91
2021/09/06 01:14:37;;;;;;;13.68;10.38;;;18.10;86.70;;;;;;5017635;28;20027;-84
2021/09/06 01:17:04;;;;;;;17.88;11.75;;;18.10;86.80;;;;;;5018451;28;20040;-84
2021/09/06 01:19:30;;;;;;;16.75;12.13;;;18.00;86.90;;;;;;5034555;28;20033;-85
2021/09/06 01:21:56;;;;;;;14.88;11.95;;;18.00;86.90;;;;;;5052493;28;20100;-84
2021/09/06 01:24:22;;;;;;;15.23;11.57;;;18.00;87.10;;;;;;5031468;28;20135;-85
2021/09/06 01:26:49;;;;;;;13.88;10.73;;;18.00;87.10;;;;;;5034876;28;20036;-85
2021/09/06 01:29:15;;;;;;;17.67;11.38;;;17.90;87.10;;;;;;5021596;28;20112;-84
2021/09/06 01:31:41;;;;;;;15.27;11.25;;;17.90;87.10;;;;;;5062487;28;20029;-86
2021/09/06 01:34:09;;;;;;;15.60;11.82;;;17.90;87.20;;;;;;5034793;28;20415;-85
2021/09/06 01:36:35;;;;;;;13.13;10.27;;;17.80;87.00;;;;;;5034663;28;20488;-85
2021/09/06 01:39:01;;;;;;;14.68;11.20;;;17.80;86.70;;;;;;5034553;28;20029;-84
2021/09/06 01:41:27;;;;;;;16.02;10.95;;;17.80;86.80;;;;;;5034077;28;20025;-84
2021/09/06 01:43:52;;;;;;;12.32;9.70;;;17.70;86.70;;;;;;5018354;28;20052;-84
2021/09/06 01:46:18;;;;;;;12.35;9.68;;;17.70;86.60;;;;;;5001585;28;20472;-84
2021/09/06 01:48:43;;;;;;;15.10;10.18;;;17.60;86.90;;;;;;5034619;28;20377;-86
2021/09/06 01:51:09;;;;;;;13.43;10.35;;;17.60;86.90;;;;;;5034383;28;20025;-84
2021/09/06 01:53:35;;;;;;;14.45;10.88;;;17.60;87.00;;;;;;5051772;28;20021;-84
2021/09/06 01:56:00;;;;;;;12.75;9.82;;;17.50;87.10;;;;;;5052189;28;20127;-85
2021/09/06 01:58:26;;;;;;;15.38;11.05;;;17.50;87.00;;;;;;5034027;28;20078;-85
2021/09/06 02:00:52;;;;;;;16.77;12.43;;;17.50;87.20;;;;;;5035030;28;20029;-83
2021/09/06 02:03:17;;;;;;;18.15;12.27;;;17.50;87.60;;;;;;5055948;28;20029;-84
2021/09/06 02:05:43;;;;;;;13.75;10.40;;;17.40;87.70;;;;;;5021868;28;20035;-85
2021/09/06 02:08:08;;;;;;;14.23;11.13;;;17.40;87.60;;;;;;5021335;28;20040;-84
2021/09/06 02:10:34;;;;;;;15.98;11.85;;;17.40;87.80;;;;;;5050229;28;20029;-84
2021/09/06 02:13:00;;;;;;;14.85;11.35;;;17.30;87.80;;;;;;5038139;28;20017;-84
2021/09/06 02:15:26;;;;;;;14.27;10.75;;;17.30;87.90;;;;;;5055690;28;20025;-84
2021/09/06 02:17:51;;;;;;;16.63;12.10;;;17.30;88.20;;;;;;5029650;28;20516;-87
2021/09/06 02:20:17;;;;;;;15.80;12.15;;;17.20;88.10;;;;;;5037959;28;20025;-93
2021/09/06 02:22:43;;;;;;;15.27;11.18;;;17.20;88.10;;;;;;5037755;28;20420;-84
2021/09/06 02:25:09;;;;;;;14.05;10.90;;;17.20;88.00;;;;;;5037582;28;20061;-84
2021/09/06 02:27:34;;;;;;;13.93;9.73;;;17.20;87.70;;;;;;5027378;28;20016;-85
2021/09/06 02:30:00;;;;;;;10.93;8.48;;;17.10;87.70;;;;;;5062728;28;20033;-84
2021/09/06 02:32:25;;;;;;;11.23;8.23;;;17.10;87.60;;;;;;5004764;28;20098;-84
2021/09/06 02:34:51;;;;;;;13.00;9.00;;;17.10;87.60;;;;;;5021592;28;20035;-85
2021/09/06 02:37:17;;;;;;;14.30;9.75;;;17.00;87.50;;;;;;5037539;28;20025;-84
2021/09/06 02:39:42;;;;;;;16.05;10.98;;;17.00;87.90;;;;;;5055366;28;20068;-84
2021/09/06 02:42:08;;;;;;;14.43;11.57;;;17.00;88.70;;;;;;5020652;28;20033;-84
2021/09/06 02:44:34;;;;;;;16.27;10.85;;;16.90;88.10;;;;;;5023366;28;20059;-84
2021/09/06 02:47:00;;;;;;;13.75;11.07;;;16.90;88.30;;;;;;5025511;28;20036;-86
2021/09/06 02:49:25;;;;;;;16.40;11.75;;;16.90;88.40;;;;;;5037702;28;20358;-84
2021/09/06 02:51:51;;;;;;;15.40;11.52;;;16.80;88.40;;;;;;5038053;28;20025;-85
2021/09/06 02:54:17;;;;;;;16.33;11.77;;;16.80;88.50;;;;;;5055378;28;20116;-84
2021/09/06 02:56:44;;;;;;;18.15;12.15;;;16.80;88.40;;;;;;5055819;28;20048;-85
2021/09/06 02:59:10;;;;;;;18.55;12.48;;;16.80;88.60;;;;;;5037106;28;20021;-84
2021/09/06 03:01:36;;;;;;;17.80;13.45;;;16.80;88.60;;;;;;5021562;28;20033;-85
2021/09/06 03:04:02;;;;;;;16.13;12.35;;;16.70;88.50;;;;;;5026828;28;20041;-87
2021/09/06 03:06:27;;;;;;;18.08;13.20;;;16.70;88.50;;;;;;5053434;28;20013;-85
2021/09/06 03:08:53;;;;;;;18.63;12.60;;;16.70;88.40;;;;;;5054036;28;20033;-85
2021/09/06 03:11:23;;;;;;;18.67;12.05;;;16.70;88.40;;;;;;5040296;28;20109;-83
2021/09/06 03:13:51;;;;;;;16.67;12.15;;;16.60;88.60;;;;;;5021635;28;20028;-86
2021/09/06 03:16:17;;;;;;;16.85;12.07;;;16.60;88.70;;;;;;5022355;28;20033;-85
2021/09/06 03:18:43;;;;;;;17.65;12.38;;;16.60;89.00;;;;;;5050848;28;20433;-85
2021/09/06 03:21:09;;;;;;;16.27;12.20;;;16.50;88.90;;;;;;5054365;28;20025;-85
2021/09/06 03:23:34;;;;;;;17.73;12.55;;;16.60;89.00;;;;;;5044919;28;20041;-84
2021/09/06 03:26:00;;;;;;;15.68;11.45;;;16.50;89.20;;;;;;5041891;28;20029;-85
2021/09/06 03:28:26;;;;;;;16.30;12.45;;;16.50;89.20;;;;;;5045685;28;20025;-89
2021/09/06 03:30:51;;;;;;;14.90;11.45;;;16.50;88.90;;;;;;5041613;28;20027;-86
2021/09/06 03:33:17;;;;;;;16.40;11.70;;;16.40;88.90;;;;;;5034961;28;20095;-84
2021/09/06 03:35:43;;;;;;;16.25;11.60;;;16.40;88.80;;;;;;5035145;28;20029;-84
2021/09/06 03:38:13;;;;;;;14.25;11.23;;;16.40;88.90;;;;;;5048425;28;20411;-84
2021/09/06 03:40:39;;;;;;;13.83;11.27;;;16.40;88.80;;;;;;5039346;28;20573;-85
2021/09/06 03:43:05;;;;;;;16.13;11.15;;;16.30;88.80;;;;;;5036294;28;20053;-84
2021/09/06 03:45:31;;;;;;;14.48;10.27;;;16.30;88.80;;;;;;5036382;28;20029;-85
2021/09/06 03:47:57;;;;;;;11.68;9.18;;;16.30;88.80;;;;;;5020850;28;20036;-84
2021/09/06 03:50:22;;;;;;;9.82;7.65;;;16.20;89.10;;;;;;5036684;28;20029;-84
2021/09/06 03:52:48;;;;;;;9.85;7.55;;;16.20;89.30;;;;;;5020621;28;20025;-84
2021/09/06 03:55:14;;;;;;;10.65;8.13;;;16.10;89.20;;;;;;5036428;28;20063;-85
2021/09/06 03:57:40;;;;;;;9.55;6.85;;;16.10;89.40;;;;;;5038782;28;20115;-85
2021/09/06 04:00:07;;;;;;;7.78;5.80;;;16.10;89.60;;;;;;5052527;28;20040;-86
2021/09/06 04:02:33;;;;;;;9.70;6.57;;;16.00;89.50;;;;;;5055279;28;20028;-88
2021/09/06 04:04:59;;;;;;;10.63;7.50;;;16.00;89.40;;;;;;5078392;28;20037;-88
2021/09/06 04:07:27;;;;;;;9.15;7.28;;;16.00;89.50;;;;;;5059747;28;20117;-86
2021/09/06 04:09:53;;;;;;;10.05;7.68;;;16.00;89.50;;;;;;5038446;28;20032;-85
2021/09/06 04:12:19;;;;;;;11.35;6.95;;;15.90;89.60;;;;;;5037354;28;20076;-87
2021/09/06 04:14:45;;;;;;;9.45;7.15;;;15.90;89.70;;;;;;5058271;28;20029;-86
2021/09/06 04:17:11;;;;;;;8.93;6.68;;;15.80;90.00;;;;;;5044133;28;20037;-85
2021/09/06 04:19:37;;;;;;;8.90;6.40;;;15.80;90.10;;;;;;5055555;28;20028;-84
2021/09/06 04:22:03;;;;;;;9.88;6.75;;;15.80;90.00;;;;;;5015960;28;20490;-87
2021/09/06 04:24:29;;;;;;;9.40;7.05;;;15.80;90.00;;;;;;5019954;28;20057;-85
2021/09/06 04:26:55;;;;;;;10.02;7.10;;;15.80;90.00;;;;;;5006116;28;20035;-85
2021/09/06 04:29:21;;;;;;;9.70;7.28;;;15.70;90.10;;;;;;5035054;28;20030;-85
2021/09/06 04:31:48;;;;;;;9.07;6.82;;;15.70;90.10;;;;;;5017191;28;20025;-86
2021/09/06 04:34:14;;;;;;;7.15;5.18;;;15.70;90.20;;;;;;5017471;28;20115;-86
2021/09/06 04:36:39;;;;;;;6.90;5.03;;;15.70;90.30;;;;;;4996401;28;20026;-86
2021/09/06 04:39:05;;;;;;;7.20;5.60;;;15.60;90.40;;;;;;4996678;28;20037;-85
2021/09/06 04:41:31;;;;;;;8.68;6.05;;;15.60;90.30;;;;;;5028978;28;20025;-88
2021/09/06 04:43:57;;;;;;;10.55;7.13;;;15.60;90.30;;;;;;5005160;28;20113;-85
2021/09/06 04:46:23;;;;;;;9.95;7.93;;;15.60;90.40;;;;;;5015646;28;20377;-84
2021/09/06 04:48:49;;;;;;;8.95;6.28;;;15.50;90.50;;;;;;5016506;28;20112;-85
2021/09/06 04:51:14;;;;;;;9.50;7.00;;;15.50;90.30;;;;;;5016511;28;20103;-85
2021/09/06 04:53:41;;;;;;;9.02;6.78;;;15.50;90.30;;;;;;5015495;28;20470;-84
2021/09/06 04:56:08;;;;;;;10.48;7.13;;;15.50;90.40;;;;;;4996110;28;20030;-88
2021/09/06 04:58:34;;;;;;;10.60;7.63;;;15.50;90.30;;;;;;5013927;28;20036;-85
2021/09/06 05:01:00;;;;;;;8.75;6.85;;;15.40;90.30;;;;;;4999286;28;20030;-85
2021/09/06 05:03:25;;;;;;;9.80;7.10;;;15.40;90.20;;;;;;5001673;28;20045;-88
2021/09/06 05:05:51;;;;;;;8.95;7.15;;;15.40;90.30;;;;;;5015279;28;20160;-85
2021/09/06 05:08:17;;;;;;;9.23;6.50;;;15.40;90.30;;;;;;5006552;28;20033;-84
2021/09/06 05:10:43;;;;;;;9.60;7.60;;;15.30;90.30;;;;;;5013842;28;20355;-85
2021/09/06 05:13:09;;;;;;;10.75;8.00;;;15.30;90.30;;;;;;4983779;28;20037;-84
2021/09/06 05:15:34;;;;;;;11.90;7.60;;;15.30;90.40;;;;;;4997768;28;20080;-89
2021/09/06 05:18:00;;;;;;;10.90;7.63;;;15.30;90.60;;;;;;5008790;28;20054;-87
2021/09/06 05:20:26;;;;;;;9.48;7.07;;;15.30;90.60;;;;;;5010435;28;20030;-83
2021/09/06 05:22:52;;;;;;;12.43;8.85;;;15.30;90.60;;;;;;5003613;28;20076;-82
2021/09/06 05:25:18;;;;;;;12.23;8.52;;;15.30;90.70;;;;;;4997049;28;20473;-83
2021/09/06 05:27:43;;;;;;;12.98;8.32;;;15.30;90.70;;;;;;5036163;28;20029;-84
2021/09/06 05:30:10;;;;;;;10.98;8.90;;;15.30;90.80;;;;;;5034552;28;20108;-82
2021/09/06 05:32:36;;;;;;;12.07;9.02;;;15.20;90.90;;;;;;5016617;28;20032;-84
2021/09/06 05:35:02;;;;;;;11.75;8.57;;;15.20;90.90;;;;;;5037704;28;20025;-84
2021/09/06 05:37:27;;;;;;;13.80;10.27;;;15.30;91.10;;;;;;5019678;28;20029;-84
2021/09/06 05:39:53;;;;;;;17.63;11.38;;;15.30;91.20;;;;;;5014880;28;20495;-83
2021/09/06 05:42:19;;;;;;;17.77;12.57;;;15.30;91.30;;;;;;5008767;28;20072;-83
2021/09/06 05:44:49;;;;;;;18.48;13.15;;;15.30;91.40;;;;;;5029476;28;20033;-83
2021/09/06 05:47:15;;;;;;;19.92;14.52;;;15.30;91.40;;;;;;5052095;28;20488;-84
2021/09/06 05:49:41;;;;;;;23.58;14.95;;;15.30;91.60;;;;;;5017674;28;20025;-83
2021/09/06 05:52:06;;;;;;;17.80;13.75;;;15.40;91.80;;;;;;4989041;28;20029;-84
2021/09/06 05:54:32;;;;;;;19.13;13.82;;;15.40;91.80;;;;;;5026820;28;20047;-83
2021/09/06 05:56:57;;;;;;;18.30;13.60;;;15.40;92.00;;;;;;5021919;28;20386;-85
2021/09/06 05:59:23;;;;;;;18.98;12.98;;;15.40;92.10;;;;;;5019434;28;20075;-84
2021/09/06 06:01:49;;;;;;;17.23;12.70;;;15.40;92.10;;;;;;5035666;28;20534;-84
2021/09/06 06:04:14;;;;;;;17.13;12.35;;;15.50;92.20;;;;;;5002368;28;20043;-84
2021/09/06 06:06:40;;;;;;;19.60;14.07;;;15.50;92.20;;;;;;5003076;28;20431;-86
2021/09/06 06:09:06;;;;;;;22.42;15.40;;;15.50;92.20;;;;;;5021905;28;20104;-84
2021/09/06 06:11:31;;;;;;;22.02;15.70;;;15.50;92.30;;;;;;5020950;28;20025;-84
2021/09/06 06:13:57;;;;;;;22.70;14.20;;;15.60;92.30;;;;;;5020375;28;20058;-84
2021/09/06 06:16:23;;;;;;;23.83;15.45;;;15.60;92.30;;;;;;5020453;28;20090;-85
2021/09/06 06:18:48;;;;;;;21.40;15.23;;;15.60;92.50;;;;;;5016952;28;20026;-84
2021/09/06 06:21:14;;;;;;;24.08;15.90;;;15.70;92.50;;;;;;5021807;28;20041;-83
2021/09/06 06:23:40;;;;;;;22.70;16.27;;;15.70;92.50;;;;;;5037734;28;20057;-90
2021/09/06 06:26:05;;;;;;;23.52;15.70;;;15.70;92.50;;;;;;5024033;28;20001;-87
2021/09/06 06:28:31;;;;;;;24.35;16.25;;;15.70;92.50;;;;;;5036872;28;20021;-86
2021/09/06 06:30:57;;;;;;;26.48;16.92;;;15.80;92.60;;;;;;5039984;28;20041;-83
2021/09/06 06:33:23;;;;;;;22.15;15.32;;;15.80;92.60;;;;;;5075149;28;20029;-86
2021/09/06 06:35:48;;;;;;;21.63;15.30;;;15.80;92.60;;;;;;5042560;28;20021;-88
2021/09/06 06:38:14;;;;;;;20.75;15.13;;;15.90;92.60;;;;;;5058802;28;20013;-87
2021/09/06 06:40:40;;;;;;;21.17;15.23;;;15.90;92.60;;;;;;5057026;28;20005;-85
2021/09/06 06:43:05;;;;;;;21.25;15.18;;;16.00;92.60;;;;;;5072810;28;20044;-88
2021/09/06 06:45:31;;;;;;;20.13;14.27;;;16.00;92.60;;;;;;5050680;28;20044;-78
2021/09/06 06:47:57;;;;;;;21.05;15.10;;;16.00;92.50;;;;;;5018640;28;20124;-82
2021/09/06 06:50:24;;;;;;;22.45;15.90;;;16.10;92.60;;;;;;5021363;28;20534;-81
2021/09/06 06:52:50;;;;;;;23.38;16.50;;;16.10;92.60;;;;;;5006863;28;20083;-80
2021/09/06 06:55:16;;;;;;;21.17;16.20;;;16.20;92.70;;;;;;5055075;28;20064;-80
2021/09/06 06:57:42;;;;;;;21.50;15.48;;;16.20;92.80;;;;;;5021599;28;20088;-81
2021/09/06 07:00:08;;;;;;;21.65;16.77;;;16.20;92.80;;;;;;5007213;28;20033;-80
2021/09/06 07:02:34;;;;;;;24.33;17.23;;;16.30;92.90;;;;;;5044506;28;20025;-81
2021/09/06 07:04:59;;;;;;;23.05;17.45;;;16.30;93.00;;;;;;5043786;28;20112;-81
2021/09/06 07:07:25;;;;;;;22.95;16.33;;;16.30;93.00;;;;;;5009135;28;20497;-80
2021/09/06 07:09:51;;;;;;;22.75;15.93;;;16.40;93.00;;;;;;5012312;28;20036;-80
2021/09/06 07:12:16;;;;;;;23.02;16.35;;;16.40;93.00;;;;;;5041684;28;20100;-79
2021/09/06 07:14:42;;;;;;;22.35;16.25;;;16.40;93.10;;;;;;5039145;28;20032;-81
2021/09/06 07:17:08;;;;;;;20.92;15.00;;;16.50;93.10;;;;;;5022126;28;20055;-79
2021/09/06 07:19:33;;;;;;;22.15;15.40;;;16.60;93.10;;;;;;5021707;28;20021;-80
2021/09/06 07:21:59;;;;;;;26.80;16.88;;;16.60;93.10;;;;;;5037734;28;20029;-80
2021/09/06 07:24:25;;;;;;;21.13;15.85;;;16.60;93.20;;;;;;5026442;28;20057;-80
2021/09/06 07:26:50;;;;;;;21.23;15.25;;;16.60;93.20;;;;;;5047115;28;20466;-80
2021/09/06 07:29:16;;;;;;;23.98;15.65;;;16.70;93.20;;;;;;5051388;28;20057;-80
2021/09/06 07:31:42;;;;;;;21.50;15.65;;;16.70;93.20;;;;;;5021816;28;20029;-80
2021/09/06 07:34:08;;;;;;;20.02;15.32;;;16.80;93.30;;;;;;5045520;28;20491;-81
2021/09/06 07:36:35;;;;;;;19.60;14.25;;;16.80;93.30;;;;;;5042313;28;20075;-83
2021/09/06 07:39:04;;;;;;;16.45;12.73;;;16.90;93.30;;;;;;5050338;28;20136;-82
2021/09/06 07:41:30;;;;;;;22.95;15.27;;;16.90;93.30;;;;;;5030612;28;20029;-81
2021/09/06 07:43:56;;;;;;;18.98;12.98;;;17.00;93.30;;;;;;5047728;28;20055;-82
2021/09/06 07:46:21;;;;;;;22.33;15.45;;;17.00;93.40;;;;;;5041354;28;20035;-84
2021/09/06 07:48:47;;;;;;;26.63;14.07;;;17.10;93.40;;;;;;5055355;28;20021;-81
2021/09/06 07:51:13;;;;;;;17.25;13.10;;;17.20;93.50;;;;;;5032872;28;20035;-81
2021/09/06 07:53:38;;;;;;;20.55;14.30;;;17.20;93.50;;;;;;5030502;28;20358;-87
2021/09/06 07:56:04;;;;;;;19.77;14.32;;;17.30;93.60;;;;;;5035352;28;20422;-82
2021/09/06 07:58:30;;;;;;;19.00;14.02;;;17.30;93.60;;;;;;5003548;28;20453;-81
2021/09/06 08:00:55;;;;;;;21.42;15.45;;;17.40;93.60;;;;;;5008617;28;20025;-81
2021/09/06 08:03:21;;;;;;;19.15;14.68;;;17.50;93.70;;;;;;5018815;28;20024;-80
2021/09/06 08:05:47;;;;;;;18.63;14.35;;;17.50;93.70;;;;;;5036628;28;20440;-81
2021/09/06 08:08:14;;;;;;;21.17;15.95;;;17.70;93.80;;;;;;5020063;28;20032;-81
2021/09/06 08:10:40;;;;;;;22.83;15.85;;;17.70;93.90;;;;;;5036303;28;20025;-81
2021/09/06 08:13:05;;;;;;;20.45;15.85;;;17.80;93.80;;;;;;5036311;28;20465;-81
2021/09/06 08:15:31;;;;;;;20.27;15.68;;;17.80;93.80;;;;;;5050749;28;20838;-81
2021/09/06 08:17:57;;;;;;;22.55;16.75;;;17.90;93.80;;;;;;5036239;28;20128;-81
2021/09/06 08:20:23;;;;;;;24.50;18.73;;;18.00;93.90;;;;;;5035860;28;20116;-81
2021/09/06 08:22:49;;;;;;;22.77;16.48;;;18.10;93.80;;;;;;5019237;28;20116;-81
2021/09/06 08:25:16;;;;;;;20.08;14.95;;;18.20;93.70;;;;;;5015414;28;20049;-81
2021/09/06 08:27:42;;;;;;;20.50;15.30;;;18.20;93.70;;;;;;5033245;28;20104;-81
2021/09/06 08:30:11;;;;;;;16.73;13.73;;;18.30;93.60;;;;;;5016422;28;20496;-85
2021/09/06 08:32:38;;;;;;;16.05;12.32;;;18.40;93.60;;;;;;5031417;28;20108;-85
2021/09/06 08:35:04;;;;;;;15.13;11.90;;;18.50;93.60;;;;;;5036023;28;20053;-85
2021/09/06 08:37:30;;;;;;;15.70;12.18;;;18.50;93.60;;;;;;5050632;28;20125;-85
2021/09/06 08:39:56;;;;;;;17.95;12.00;;;18.60;93.60;;;;;;5036348;28;20117;-85
2021/09/06 08:42:21;;;;;;;16.83;12.10;;;18.70;93.60;;;;;;5019392;28;20025;-85
2021/09/06 08:44:47;;;;;;;19.50;13.25;;;18.80;93.60;;;;;;5018822;28;20375;-86
2021/09/06 08:47:16;;;;;;;18.27;13.30;;;18.90;93.60;;;;;;5036437;28;20457;-85
2021/09/06 08:49:45;;;;;;;18.13;13.70;;;18.90;93.60;;;;;;5020290;28;20469;-85
2021/09/06 08:52:11;;;;;;;20.20;14.60;;;19.00;93.50;;;;;;5016309;28;20086;-86
2021/09/06 08:54:37;;;;;;;18.80;13.68;;;19.10;93.40;;;;;;5028045;28;20428;-85
2021/09/06 08:57:03;;;;;;;18.60;14.35;;;19.20;93.30;;;;;;5033058;28;20013;-86
2021/09/06 08:59:29;;;;;;;16.60;12.93;;;19.20;93.30;;;;;;5018920;28;20143;-85
2021/09/06 09:01:57;;;;;;;15.95;12.70;;;19.30;93.20;;;;;;5033778;28;20104;-85
2021/09/06 09:04:25;;;;;;;17.13;12.80;;;19.40;93.10;;;;;;5036106;28;20025;-84
2021/09/06 09:06:54;;;;;;;15.02;11.77;;;19.50;93.00;;;;;;5050850;28;20070;-86
2021/09/06 09:09:25;;;;;;;15.35;11.20;;;19.60;92.90;;;;;;5035620;28;20025;-86
2021/09/06 09:12:11;;;;;;;15.30;10.75;;;19.70;92.90;;;;;;5035141;28;20029;-85
2021/09/06 09:14:45;;;;;;;16.52;10.65;;;19.70;92.80;;;;;;5033722;28;20071;-85
2021/09/06 09:17:11;;;;;;;15.85;11.85;;;19.80;92.80;;;;;;5026139;28;20018;-87
2021/09/06 09:19:38;;;;;;;14.93;11.13;;;19.90;92.70;;;;;;5023328;28;20030;-85
2021/09/06 09:22:07;;;;;;;14.45;10.75;;;20.00;92.60;;;;;;5013125;28;20032;-86
2021/09/06 09:24:36;;;;;;;13.48;10.25;;;20.10;92.50;;;;;;5035085;28;20056;-86
2021/09/06 09:27:05;;;;;;;14.68;10.98;;;20.10;92.40;;;;;;5019785;28;20036;-85
2021/09/06 09:29:31;;;;;;;14.48;10.93;;;20.20;92.30;;;;;;5035730;28;20059;-86
2021/09/06 09:32:02;;;;;;;15.25;11.25;;;20.30;92.00;;;;;;5029744;28;20412;-86
2021/09/06 09:34:30;;;;;;;14.13;10.52;;;20.30;91.90;;;;;;5035897;28;20079;-85
2021/09/06 09:36:57;;;;;;;13.35;9.63;;;20.50;91.90;;;;;;5029941;28;20018;-86
2021/09/06 09:39:23;;;;;;;11.48;9.02;;;20.50;91.80;;;;;;5031809;28;20035;-85
2021/09/06 09:41:52;;;;;;;12.52;8.95;;;20.60;91.70;;;;;;5016444;28;20116;-85
2021/09/06 09:44:21;;;;;;;12.38;9.95;;;20.70;91.90;;;;;;5035539;28;20106;-85
2021/09/06 09:47:01;;;;;;;16.73;11.50;;;20.80;91.40;;;;;;5053389;28;20450;-86
2021/09/06 09:49:33;;;;;;;13.17;10.00;;;20.80;91.10;;;;;;5036341;28;20025;-85
2021/09/06 09:52:00;;;;;;;14.85;10.77;;;20.90;91.10;;;;;;5035342;28;20278;-86
2021/09/06 09:54:25;;;;;;;16.60;10.43;;;21.00;91.10;;;;;;5035497;28;20033;-85
2021/09/06 09:56:51;;;;;;;12.07;8.52;;;21.10;90.90;;;;;;5018395;28;20021;-84
2021/09/06 09:59:18;;;;;;;12.25;8.50;;;21.10;90.80;;;;;;5053018;28;20400;-83
2021/09/06 10:02:13;;;;;;;11.82;8.15;;;21.20;90.80;;;;;;5034758;28;20040;-87
2021/09/06 10:04:51;;;;;;;12.98;9.35;;;21.30;90.80;;;;;;5049778;28;20124;-84
2021/09/06 10:07:22;;;;;;;11.65;8.60;;;21.40;90.70;;;;;;5034822;28;20025;-82
2021/09/06 10:09:48;;;;;;;11.60;8.95;;;21.40;90.50;;;;;;5048672;28;20028;-82
2021/09/06 10:12:25;;;;;;;13.57;9.25;;;21.50;90.50;;;;;;5012528;28;20029;-81
2021/09/06 10:14:53;;;;;;;11.93;9.00;;;21.60;90.40;;;;;;5031948;28;20029;-83
2021/09/06 10:17:49;;;;;;;13.70;9.23;;;21.60;90.20;;;;;;5034460;28;20029;-83
2021/09/06 10:20:15;;;;;;;11.63;9.20;;;21.70;90.20;;;;;;5027409;28;20488;-82
2021/09/06 10:22:42;;;;;;;10.15;8.13;;;21.80;90.20;;;;;;5047647;28;20024;-83
2021/09/06 10:25:10;;;;;;;10.88;8.07;;;21.90;90.20;;;;;;5035088;28;20077;-84
2021/09/06 10:27:37;;;;;;;13.65;9.98;;;22.00;90.10;;;;;;5034931;28;20026;-84
2021/09/06 10:30:14;;;;;;;14.18;10.52;;;22.00;89.70;;;;;;5049737;28;20021;-92
2021/09/06 10:32:46;;;;;;;14.30;10.10;;;22.10;89.00;;;;;;5048936;28;20553;-83
2021/09/06 10:35:14;;;;;;;14.50;10.88;;;22.10;88.90;;;;;;5036868;28;20101;-84
2021/09/06 10:37:42;;;;;;;15.13;11.00;;;22.20;88.40;;;;;;5033380;28;20025;-83
2021/09/06 10:40:10;;;;;;;13.55;10.52;;;22.30;87.80;;;;;;5033177;28;20040;-83
2021/09/06 10:42:38;;;;;;;14.48;9.70;;;22.40;87.10;;;;;;5033041;28;20017;-83
2021/09/06 10:45:06;;;;;;;11.45;9.52;;;22.40;86.80;;;;;;5036914;28;20037;-82
2021/09/06 10:47:37;;;;;;;11.32;8.38;;;22.50;86.70;;;;;;5044898;28;20029;-83
2021/09/06 10:50:21;;;;;;;11.60;8.88;;;22.60;86.90;;;;;;5067580;28;20025;-88
2021/09/06 10:52:48;;;;;;;11.80;9.27;;;22.70;87.20;;;;;;5036364;28;20026;-88
2021/09/06 10:55:18;;;;;;;11.45;8.93;;;22.80;86.80;;;;;;5067920;28;20032;-87
2021/09/06 10:57:46;;;;;;;12.52;8.93;;;22.80;86.50;;;;;;5058677;28;20088;-87
2021/09/06 11:00:30;;;;;;;12.27;8.63;;;22.90;86.00;;;;;;5061198;28;20032;-90
2021/09/06 11:02:55;;;;;;;11.95;9.15;;;23.00;85.10;;;;;;5037984;28;20060;-83
2021/09/06 11:05:23;;;;;;;12.07;8.80;;;23.00;84.30;;;;;;5033758;28;20044;-83
2021/09/06 11:07:51;;;;;;;11.38;8.38;;;23.10;84.50;;;;;;5029629;28;20041;-83
2021/09/06 11:10:20;;;;;;;12.38;8.85;;;23.20;84.80;;;;;;5048688;28;20029;-81
2021/09/06 11:12:54;;;;;;;10.35;8.25;;;23.30;84.60;;;;;;5056180;28;20021;-83
2021/09/06 11:15:36;;;;;;;10.57;8.23;;;23.30;83.80;;;;;;5048180;28;20495;-84
2021/09/06 11:18:05;;;;;;;9.88;7.75;;;23.40;82.30;;;;;;5053549;28;20031;-84
2021/09/06 11:20:34;;;;;;;11.02;8.68;;;23.50;82.10;;;;;;5036010;28;20033;-84
2021/09/06 11:23:02;;;;;;;10.05;7.82;;;23.50;81.90;;;;;;5060221;28;20043;-84
2021/09/06 11:25:29;;;;;;;13.90;9.30;;;23.60;81.90;;;;;;5064546;28;20070;-85
2021/09/06 11:28:06;;;;;;;12.75;9.30;;;23.70;80.90;;;;;;5035288;28;20025;-84
2021/09/06 11:30:35;;;;;;;12.57;8.52;;;23.70;80.80;;;;;;5054670;28;20029;-84
2021/09/06 11:33:05;;;;;;;11.00;8.38;;;23.80;81.10;;;;;;5041166;28;20491;-84
2021/09/06 11:35:30;;;;;;;12.15;8.52;;;23.90;79.90;;;;;;5037728;28;20079;-83
2021/09/06 11:37:57;;;;;;;11.73;9.00;;;23.90;79.60;;;;;;5066571;28;20025;-88
2021/09/06 11:40:24;;;;;;;11.70;8.77;;;24.00;79.30;;;;;;5068479;28;20487;-83
2021/09/06 11:42:50;;;;;;;10.90;7.97;;;24.00;78.70;;;;;;5050567;28;20025;-84
2021/09/06 11:45:18;;;;;;;10.70;8.27;;;24.10;79.00;;;;;;5035177;28;20037;-85
2021/09/06 11:47:45;;;;;;;10.40;7.43;;;24.20;79.60;;;;;;4997016;28;20021;-82
2021/09/06 11:50:12;;;;;;;11.80;9.18;;;24.20;79.70;;;;;;5051762;28;20036;-84
2021/09/06 11:52:40;;;;;;;13.15;9.23;;;24.30;79.00;;;;;;5020259;28;20152;-83
2021/09/06 11:55:15;;;;;;;11.15;9.10;;;24.40;78.20;;;;;;5031699;28;20423;-83
2021/09/06 11:57:41;;;;;;;11.18;8.10;;;24.50;77.00;;;;;;5030979;28;20087;-83
2021/09/06 12:00:08;;;;;;;11.15;8.50;;;24.60;77.30;;;;;;5020572;28;20029;-83
2021/09/06 12:02:34;;;;;;;9.93;8.07;;;24.70;77.90;;;;;;5019817;28;20025;-82
2021/09/06 12:05:14;;;;;;;10.43;8.15;;;24.80;77.40;;;;;;5035923;28;20401;-84
2021/09/06 12:07:54;;;;;;;11.43;8.07;;;24.90;76.80;;;;;;5033886;28;20020;-81
2021/09/06 12:10:34;;;;;;;11.32;8.63;;;24.90;75.50;;;;;;5033424;28;20373;-83
2021/09/06 12:13:08;;;;;;;10.35;8.10;;;25.00;75.60;;;;;;5018034;28;20487;-83
2021/09/06 12:15:55;;;;;;;11.10;8.07;;;25.10;76.00;;;;;;5027847;28;20021;-85
2021/09/06 12:18:21;;;;;;;10.95;8.48;;;25.20;76.40;;;;;;5071993;28;20027;-82
2021/09/06 12:20:46;;;;;;;12.15;9.63;;;25.30;74.80;;;;;;5015659;28;20025;-82
2021/09/06 12:23:15;;;;;;;12.57;8.73;;;25.30;73.80;;;;;;5038167;28;20045;-83
2021/09/06 12:25:42;;;;;;;10.45;8.00;;;25.40;73.90;;;;;;5037492;28;20378;-83
2021/09/06 12:28:14;;;;;;;11.60;8.18;;;25.50;73.00;;;;;;5055038;28;20012;-84
2021/09/06 12:30:42;;;;;;;10.50;7.43;;;25.50;72.20;;;;;;5054020;28;20092;-83